sensor_id;sensor_type;location;lat;lon;timestamp;P1;durP1;ratioP1;P2;durP2;ratioP2
70761;SDS011;58360;0.000;0.000;2023-03-07T00:00:56;10.15;;;5.35;;
70761;SDS011;58360;0.000;0.000;2023-03-07T00:03:22;13.05;;;6.40;;
70761;SDS011;58360;0.000;0.000;2023-03-07T00:05:48;15.63;;;5.45;;
70761;SDS011;58360;0.000;0.000;2023-03-07T00:08:13;11.45;;;5.70;;
70761;SDS011;58360;0.000;0.000;2023-03-07T00:10:39;12.35;;;5.95;;
70761;SDS011;58360;0.000;0.000;2023-03-07T00:13:05;11.90;;;6.30;;
70761;SDS011;58360;0.000;0.000;2023-03-07T00:15:31;15.25;;;6.20;;
70761;SDS011;58360;0.000;0.000;2023-03-07T00:17:57;12.27;;;5.60;;
70761;SDS011;58360;0.000;0.000;2023-03-07T00:20:22;10.20;;;5.38;;
70761;SDS011;58360;0.000;0.000;2023-03-07T00:22:48;13.07;;;5.35;;
70761;SDS011;58360;0.000;0.000;2023-03-07T00:25:14;10.90;;;5.55;;
70761;SDS011;58360;0.000;0.000;2023-03-07T00:27:40;12.25;;;5.28;;
70761;SDS011;58360;0.000;0.000;2023-03-07T00:30:06;12.68;;;6.18;;
70761;SDS011;58360;0.000;0.000;2023-03-07T00:32:32;9.90;;;5.25;;
70761;SDS011;58360;0.000;0.000;2023-03-07T00:34:58;11.38;;;5.57;;
70761;SDS011;58360;0.000;0.000;2023-03-07T00:37:25;10.55;;;5.22;;
70761;SDS011;58360;0.000;0.000;2023-03-07T00:39:50;13.90;;;6.22;;
70761;SDS011;58360;0.000;0.000;2023-03-07T00:42:16;12.95;;;5.45;;
70761;SDS011;58360;0.000;0.000;2023-03-07T00:44:42;10.77;;;5.70;;
70761;SDS011;58360;0.000;0.000;2023-03-07T00:47:07;14.13;;;5.50;;
70761;SDS011;58360;0.000;0.000;2023-03-07T00:49:33;13.82;;;5.55;;
70761;SDS011;58360;0.000;0.000;2023-03-07T00:52:00;11.80;;;6.47;;
70761;SDS011;58360;0.000;0.000;2023-03-07T00:54:26;13.98;;;5.95;;
70761;SDS011;58360;0.000;0.000;2023-03-07T00:56:52;13.18;;;5.80;;
70761;SDS011;58360;0.000;0.000;2023-03-07T00:59:18;10.75;;;5.60;;
70761;SDS011;58360;0.000;0.000;2023-03-07T01:01:43;12.95;;;5.25;;
70761;SDS011;58360;0.000;0.000;2023-03-07T01:04:09;13.30;;;5.63;;
70761;SDS011;58360;0.000;0.000;2023-03-07T01:06:35;12.75;;;5.88;;
70761;SDS011;58360;0.000;0.000;2023-03-07T01:09:02;17.33;;;6.22;;
70761;SDS011;58360;0.000;0.000;2023-03-07T01:11:31;15.80;;;7.00;;
70761;SDS011;58360;0.000;0.000;2023-03-07T01:13:59;14.75;;;5.97;;
70761;SDS011;58360;0.000;0.000;2023-03-07T01:16:27;18.15;;;6.13;;
70761;SDS011;58360;0.000;0.000;2023-03-07T01:18:55;19.40;;;6.35;;
70761;SDS011;58360;0.000;0.000;2023-03-07T01:21:23;16.90;;;7.10;;
70761;SDS011;58360;0.000;0.000;2023-03-07T01:23:51;10.70;;;6.30;;
70761;SDS011;58360;0.000;0.000;2023-03-07T01:26:18;15.80;;;7.75;;
70761;SDS011;58360;0.000;0.000;2023-03-07T01:28:46;19.90;;;8.02;;
70761;SDS011;58360;0.000;0.000;2023-03-07T01:31:12;16.92;;;7.63;;
70761;SDS011;58360;0.000;0.000;2023-03-07T01:33:37;19.13;;;7.70;;
70761;SDS011;58360;0.000;0.000;2023-03-07T01:36:03;17.02;;;7.72;;
70761;SDS011;58360;0.000;0.000;2023-03-07T01:38:29;18.05;;;7.65;;
70761;SDS011;58360;0.000;0.000;2023-03-07T01:41:01;12.77;;;7.43;;
70761;SDS011;58360;0.000;0.000;2023-03-07T01:43:31;17.52;;;7.70;;
70761;SDS011;58360;0.000;0.000;2023-03-07T01:49:07;19.83;;;8.07;;
70761;SDS011;58360;0.000;0.000;2023-03-07T01:51:40;19.17;;;9.23;;
70761;SDS011;58360;0.000;0.000;2023-03-07T01:54:10;20.83;;;9.45;;
70761;SDS011;58360;0.000;0.000;2023-03-07T01:56:39;20.80;;;9.82;;
70761;SDS011;58360;0.000;0.000;2023-03-07T01:59:05;21.00;;;9.45;;
70761;SDS011;58360;0.000;0.000;2023-03-07T02:01:32;27.77;;;10.77;;
70761;SDS011;58360;0.000;0.000;2023-03-07T02:04:12;18.48;;;10.02;;
70761;SDS011;58360;0.000;0.000;2023-03-07T02:06:43;23.98;;;11.80;;
70761;SDS011;58360;0.000;0.000;2023-03-07T02:09:10;20.95;;;10.40;;
70761;SDS011;58360;0.000;0.000;2023-03-07T02:14:08;24.70;;;11.52;;
70761;SDS011;58360;0.000;0.000;2023-03-07T02:16:34;25.00;;;12.07;;
70761;SDS011;58360;0.000;0.000;2023-03-07T02:19:02;22.98;;;11.38;;
70761;SDS011;58360;0.000;0.000;2023-03-07T02:21:45;34.42;;;12.40;;
70761;SDS011;58360;0.000;0.000;2023-03-07T02:24:42;29.58;;;13.57;;
70761;SDS011;58360;0.000;0.000;2023-03-07T02:27:27;32.13;;;12.85;;
70761;SDS011;58360;0.000;0.000;2023-03-07T02:29:57;28.60;;;13.70;;
70761;SDS011;58360;0.000;0.000;2023-03-07T02:32:24;27.85;;;13.73;;
70761;SDS011;58360;0.000;0.000;2023-03-07T02:34:50;26.75;;;13.30;;
70761;SDS011;58360;0.000;0.000;2023-03-07T02:37:24;28.45;;;14.93;;
70761;SDS011;58360;0.000;0.000;2023-03-07T02:40:00;23.00;;;12.73;;
70761;SDS011;58360;0.000;0.000;2023-03-07T02:44:58;23.05;;;12.68;;
70761;SDS011;58360;0.000;0.000;2023-03-07T02:47:25;27.63;;;12.13;;
70761;SDS011;58360;0.000;0.000;2023-03-07T02:49:52;30.80;;;14.43;;
70761;SDS011;58360;0.000;0.000;2023-03-07T02:52:18;30.02;;;14.30;;
70761;SDS011;58360;0.000;0.000;2023-03-07T02:54:45;26.88;;;13.65;;
70761;SDS011;58360;0.000;0.000;2023-03-07T02:57:11;27.67;;;15.38;;
70761;SDS011;58360;0.000;0.000;2023-03-07T02:59:37;28.77;;;14.98;;
70761;SDS011;58360;0.000;0.000;2023-03-07T03:02:02;30.90;;;15.38;;
70761;SDS011;58360;0.000;0.000;2023-03-07T03:04:28;34.20;;;16.35;;
70761;SDS011;58360;0.000;0.000;2023-03-07T03:06:54;27.92;;;14.15;;
70761;SDS011;58360;0.000;0.000;2023-03-07T03:09:20;33.58;;;14.98;;
70761;SDS011;58360;0.000;0.000;2023-03-07T03:11:46;29.23;;;15.15;;
70761;SDS011;58360;0.000;0.000;2023-03-07T03:14:11;29.52;;;14.90;;
70761;SDS011;58360;0.000;0.000;2023-03-07T03:16:37;28.88;;;14.52;;
70761;SDS011;58360;0.000;0.000;2023-03-07T03:19:04;30.05;;;15.27;;
70761;SDS011;58360;0.000;0.000;2023-03-07T03:21:30;28.35;;;14.52;;
70761;SDS011;58360;0.000;0.000;2023-03-07T03:23:56;28.85;;;14.27;;
70761;SDS011;58360;0.000;0.000;2023-03-07T03:26:22;34.70;;;14.63;;
70761;SDS011;58360;0.000;0.000;2023-03-07T03:28:48;30.30;;;14.68;;
70761;SDS011;58360;0.000;0.000;2023-03-07T03:31:14;27.17;;;14.95;;
70761;SDS011;58360;0.000;0.000;2023-03-07T03:33:41;28.63;;;14.70;;
70761;SDS011;58360;0.000;0.000;2023-03-07T03:36:14;32.72;;;13.60;;
70761;SDS011;58360;0.000;0.000;2023-03-07T03:38:41;26.13;;;14.05;;
70761;SDS011;58360;0.000;0.000;2023-03-07T03:41:09;32.83;;;14.57;;
70761;SDS011;58360;0.000;0.000;2023-03-07T03:43:36;30.65;;;13.80;;
70761;SDS011;58360;0.000;0.000;2023-03-07T03:46:02;27.98;;;13.88;;
70761;SDS011;58360;0.000;0.000;2023-03-07T03:48:28;27.55;;;14.50;;
70761;SDS011;58360;0.000;0.000;2023-03-07T03:51:04;31.88;;;15.50;;
70761;SDS011;58360;0.000;0.000;2023-03-07T03:53:33;29.52;;;14.75;;
70761;SDS011;58360;0.000;0.000;2023-03-07T03:56:01;31.35;;;14.40;;
70761;SDS011;58360;0.000;0.000;2023-03-07T03:58:32;26.70;;;14.13;;
70761;SDS011;58360;0.000;0.000;2023-03-07T04:01:00;26.83;;;14.77;;
70761;SDS011;58360;0.000;0.000;2023-03-07T04:03:30;32.13;;;15.13;;
70761;SDS011;58360;0.000;0.000;2023-03-07T04:06:05;31.45;;;15.45;;
70761;SDS011;58360;0.000;0.000;2023-03-07T04:08:33;28.13;;;14.80;;
70761;SDS011;58360;0.000;0.000;2023-03-07T04:10:59;34.20;;;14.88;;
70761;SDS011;58360;0.000;0.000;2023-03-07T04:13:25;33.65;;;15.50;;
70761;SDS011;58360;0.000;0.000;2023-03-07T04:15:51;31.02;;;16.52;;
70761;SDS011;58360;0.000;0.000;2023-03-07T04:18:18;27.23;;;16.27;;
70761;SDS011;58360;0.000;0.000;2023-03-07T04:20:46;27.33;;;15.43;;
70761;SDS011;58360;0.000;0.000;2023-03-07T04:23:14;26.88;;;15.45;;
70761;SDS011;58360;0.000;0.000;2023-03-07T04:25:45;27.00;;;14.60;;
70761;SDS011;58360;0.000;0.000;2023-03-07T04:28:22;30.52;;;15.73;;
70761;SDS011;58360;0.000;0.000;2023-03-07T04:30:49;31.23;;;15.45;;
70761;SDS011;58360;0.000;0.000;2023-03-07T04:33:16;34.20;;;16.42;;
70761;SDS011;58360;0.000;0.000;2023-03-07T04:35:43;27.05;;;15.40;;
70761;SDS011;58360;0.000;0.000;2023-03-07T04:38:10;26.33;;;15.57;;
70761;SDS011;58360;0.000;0.000;2023-03-07T04:40:36;29.25;;;16.50;;
70761;SDS011;58360;0.000;0.000;2023-03-07T04:43:01;32.20;;;16.05;;
70761;SDS011;58360;0.000;0.000;2023-03-07T04:45:29;33.53;;;15.23;;
70761;SDS011;58360;0.000;0.000;2023-03-07T04:47:59;26.60;;;15.88;;
70761;SDS011;58360;0.000;0.000;2023-03-07T04:50:25;35.25;;;16.42;;
70761;SDS011;58360;0.000;0.000;2023-03-07T04:52:51;29.13;;;16.88;;
70761;SDS011;58360;0.000;0.000;2023-03-07T04:55:16;28.33;;;15.93;;
70761;SDS011;58360;0.000;0.000;2023-03-07T04:57:42;33.47;;;17.40;;
70761;SDS011;58360;0.000;0.000;2023-03-07T05:00:08;35.42;;;17.30;;
70761;SDS011;58360;0.000;0.000;2023-03-07T05:02:35;33.80;;;16.75;;
70761;SDS011;58360;0.000;0.000;2023-03-07T05:05:01;35.17;;;18.38;;
70761;SDS011;58360;0.000;0.000;2023-03-07T05:07:27;32.20;;;18.10;;
70761;SDS011;58360;0.000;0.000;2023-03-07T05:09:54;34.80;;;16.98;;
70761;SDS011;58360;0.000;0.000;2023-03-07T05:12:20;34.75;;;17.85;;
70761;SDS011;58360;0.000;0.000;2023-03-07T05:14:46;38.45;;;17.58;;
70761;SDS011;58360;0.000;0.000;2023-03-07T05:17:12;31.83;;;17.98;;
70761;SDS011;58360;0.000;0.000;2023-03-07T05:19:37;33.13;;;17.35;;
70761;SDS011;58360;0.000;0.000;2023-03-07T05:22:03;34.85;;;18.33;;
70761;SDS011;58360;0.000;0.000;2023-03-07T05:24:29;30.23;;;16.52;;
70761;SDS011;58360;0.000;0.000;2023-03-07T05:26:55;29.48;;;16.58;;
70761;SDS011;58360;0.000;0.000;2023-03-07T05:29:20;32.35;;;17.30;;
70761;SDS011;58360;0.000;0.000;2023-03-07T05:31:46;28.40;;;16.98;;
70761;SDS011;58360;0.000;0.000;2023-03-07T05:34:12;28.80;;;15.90;;
70761;SDS011;58360;0.000;0.000;2023-03-07T05:36:39;30.50;;;17.25;;
70761;SDS011;58360;0.000;0.000;2023-03-07T05:39:05;26.13;;;14.98;;
70761;SDS011;58360;0.000;0.000;2023-03-07T05:41:31;29.88;;;17.55;;
70761;SDS011;58360;0.000;0.000;2023-03-07T05:43:56;33.10;;;17.90;;
70761;SDS011;58360;0.000;0.000;2023-03-07T05:46:23;26.02;;;15.20;;
70761;SDS011;58360;0.000;0.000;2023-03-07T05:48:48;28.77;;;16.42;;
70761;SDS011;58360;0.000;0.000;2023-03-07T05:51:14;28.63;;;15.15;;
70761;SDS011;58360;0.000;0.000;2023-03-07T05:53:40;27.98;;;15.07;;
70761;SDS011;58360;0.000;0.000;2023-03-07T05:56:07;28.40;;;15.68;;
70761;SDS011;58360;0.000;0.000;2023-03-07T05:58:32;32.28;;;15.98;;
70761;SDS011;58360;0.000;0.000;2023-03-07T06:01:00;26.25;;;15.52;;
70761;SDS011;58360;0.000;0.000;2023-03-07T06:03:27;29.90;;;15.15;;
70761;SDS011;58360;0.000;0.000;2023-03-07T06:05:53;28.85;;;15.63;;
70761;SDS011;58360;0.000;0.000;2023-03-07T06:08:19;27.92;;;14.32;;
70761;SDS011;58360;0.000;0.000;2023-03-07T06:10:48;31.88;;;15.90;;
70761;SDS011;58360;0.000;0.000;2023-03-07T06:13:19;28.90;;;15.73;;
70761;SDS011;58360;0.000;0.000;2023-03-07T06:15:50;25.42;;;13.82;;
70761;SDS011;58360;0.000;0.000;2023-03-07T06:18:17;25.25;;;13.50;;
70761;SDS011;58360;0.000;0.000;2023-03-07T06:20:43;26.85;;;13.50;;
70761;SDS011;58360;0.000;0.000;2023-03-07T06:23:08;27.88;;;14.30;;
70761;SDS011;58360;0.000;0.000;2023-03-07T06:25:34;20.00;;;12.18;;
70761;SDS011;58360;0.000;0.000;2023-03-07T06:28:00;20.70;;;12.65;;
70761;SDS011;58360;0.000;0.000;2023-03-07T06:30:26;20.85;;;11.77;;
70761;SDS011;58360;0.000;0.000;2023-03-07T06:32:52;20.65;;;11.13;;
70761;SDS011;58360;0.000;0.000;2023-03-07T06:35:18;20.10;;;10.98;;
70761;SDS011;58360;0.000;0.000;2023-03-07T06:37:44;20.08;;;10.60;;
70761;SDS011;58360;0.000;0.000;2023-03-07T06:40:10;21.95;;;12.00;;
70761;SDS011;58360;0.000;0.000;2023-03-07T06:42:36;19.80;;;10.68;;
70761;SDS011;58360;0.000;0.000;2023-03-07T06:45:02;23.52;;;11.57;;
70761;SDS011;58360;0.000;0.000;2023-03-07T06:47:29;20.20;;;11.15;;
70761;SDS011;58360;0.000;0.000;2023-03-07T06:49:55;18.77;;;10.20;;
70761;SDS011;58360;0.000;0.000;2023-03-07T06:52:21;18.38;;;10.63;;
70761;SDS011;58360;0.000;0.000;2023-03-07T06:54:47;21.95;;;11.25;;
70761;SDS011;58360;0.000;0.000;2023-03-07T06:57:13;20.67;;;11.40;;
70761;SDS011;58360;0.000;0.000;2023-03-07T06:59:38;19.95;;;11.63;;
70761;SDS011;58360;0.000;0.000;2023-03-07T07:02:04;23.23;;;12.18;;
70761;SDS011;58360;0.000;0.000;2023-03-07T07:04:31;29.13;;;12.23;;
70761;SDS011;58360;0.000;0.000;2023-03-07T07:06:57;27.80;;;13.25;;
70761;SDS011;58360;0.000;0.000;2023-03-07T07:09:23;28.17;;;13.45;;
70761;SDS011;58360;0.000;0.000;2023-03-07T07:11:49;23.25;;;11.93;;
70761;SDS011;58360;0.000;0.000;2023-03-07T07:14:15;21.95;;;12.43;;
70761;SDS011;58360;0.000;0.000;2023-03-07T07:16:40;26.00;;;13.18;;
70761;SDS011;58360;0.000;0.000;2023-03-07T07:19:07;26.92;;;13.63;;
70761;SDS011;58360;0.000;0.000;2023-03-07T07:21:34;25.88;;;14.23;;
70761;SDS011;58360;0.000;0.000;2023-03-07T07:24:00;28.30;;;14.38;;
70761;SDS011;58360;0.000;0.000;2023-03-07T07:26:26;25.45;;;13.82;;
70761;SDS011;58360;0.000;0.000;2023-03-07T07:28:52;25.98;;;13.20;;
70761;SDS011;58360;0.000;0.000;2023-03-07T07:31:18;21.75;;;11.55;;
70761;SDS011;58360;0.000;0.000;2023-03-07T07:33:43;22.15;;;12.48;;
70761;SDS011;58360;0.000;0.000;2023-03-07T07:36:10;22.83;;;12.77;;
70761;SDS011;58360;0.000;0.000;2023-03-07T07:38:36;29.48;;;12.73;;
70761;SDS011;58360;0.000;0.000;2023-03-07T07:41:02;33.05;;;13.55;;
70761;SDS011;58360;0.000;0.000;2023-03-07T07:43:28;25.23;;;12.88;;
70761;SDS011;58360;0.000;0.000;2023-03-07T07:45:53;23.50;;;12.65;;
70761;SDS011;58360;0.000;0.000;2023-03-07T07:48:19;28.40;;;13.20;;
70761;SDS011;58360;0.000;0.000;2023-03-07T07:50:45;24.55;;;13.10;;
70761;SDS011;58360;0.000;0.000;2023-03-07T07:53:11;30.95;;;14.90;;
70761;SDS011;58360;0.000;0.000;2023-03-07T07:55:37;28.33;;;15.45;;
70761;SDS011;58360;0.000;0.000;2023-03-07T07:58:03;34.03;;;14.00;;
70761;SDS011;58360;0.000;0.000;2023-03-07T08:00:29;24.02;;;13.88;;
70761;SDS011;58360;0.000;0.000;2023-03-07T08:02:55;25.55;;;11.98;;
70761;SDS011;58360;0.000;0.000;2023-03-07T08:05:21;16.60;;;9.65;;
70761;SDS011;58360;0.000;0.000;2023-03-07T08:07:47;16.80;;;10.75;;
70761;SDS011;58360;0.000;0.000;2023-03-07T08:10:15;20.10;;;10.82;;
70761;SDS011;58360;0.000;0.000;2023-03-07T08:12:47;13.52;;;8.10;;
70761;SDS011;58360;0.000;0.000;2023-03-07T08:15:16;15.73;;;8.13;;
70761;SDS011;58360;0.000;0.000;2023-03-07T08:17:45;13.60;;;7.80;;
70761;SDS011;58360;0.000;0.000;2023-03-07T08:20:11;15.10;;;6.90;;
70761;SDS011;58360;0.000;0.000;2023-03-07T08:22:37;12.40;;;7.88;;
70761;SDS011;58360;0.000;0.000;2023-03-07T08:25:04;12.35;;;7.00;;
70761;SDS011;58360;0.000;0.000;2023-03-07T08:27:31;10.85;;;6.90;;
70761;SDS011;58360;0.000;0.000;2023-03-07T08:29:57;10.25;;;6.43;;
70761;SDS011;58360;0.000;0.000;2023-03-07T08:32:23;11.10;;;6.80;;
70761;SDS011;58360;0.000;0.000;2023-03-07T08:34:49;15.23;;;7.85;;
70761;SDS011;58360;0.000;0.000;2023-03-07T08:37:16;17.90;;;8.15;;
70761;SDS011;58360;0.000;0.000;2023-03-07T08:39:41;12.10;;;7.35;;
70761;SDS011;58360;0.000;0.000;2023-03-07T08:42:07;12.45;;;7.93;;
70761;SDS011;58360;0.000;0.000;2023-03-07T08:44:33;16.25;;;8.13;;
70761;SDS011;58360;0.000;0.000;2023-03-07T08:46:59;14.18;;;6.90;;
70761;SDS011;58360;0.000;0.000;2023-03-07T08:49:24;11.57;;;7.25;;
70761;SDS011;58360;0.000;0.000;2023-03-07T08:51:50;14.00;;;7.78;;
70761;SDS011;58360;0.000;0.000;2023-03-07T08:54:16;10.57;;;7.22;;
70761;SDS011;58360;0.000;0.000;2023-03-07T08:56:41;13.45;;;7.75;;
70761;SDS011;58360;0.000;0.000;2023-03-07T08:59:07;11.20;;;7.72;;
70761;SDS011;58360;0.000;0.000;2023-03-07T09:01:33;11.35;;;7.32;;
70761;SDS011;58360;0.000;0.000;2023-03-07T09:03:59;11.15;;;7.60;;
70761;SDS011;58360;0.000;0.000;2023-03-07T09:06:24;12.07;;;7.65;;
70761;SDS011;58360;0.000;0.000;2023-03-07T09:08:50;12.48;;;7.55;;
70761;SDS011;58360;0.000;0.000;2023-03-07T09:11:16;14.15;;;7.60;;
70761;SDS011;58360;0.000;0.000;2023-03-07T09:13:43;12.73;;;8.55;;
70761;SDS011;58360;0.000;0.000;2023-03-07T09:16:09;11.57;;;6.95;;
70761;SDS011;58360;0.000;0.000;2023-03-07T09:18:35;11.02;;;7.35;;
70761;SDS011;58360;0.000;0.000;2023-03-07T09:21:01;13.00;;;8.07;;
70761;SDS011;58360;0.000;0.000;2023-03-07T09:23:28;13.68;;;7.72;;
70761;SDS011;58360;0.000;0.000;2023-03-07T09:25:57;15.88;;;8.73;;
70761;SDS011;58360;0.000;0.000;2023-03-07T09:28:23;11.05;;;7.60;;
70761;SDS011;58360;0.000;0.000;2023-03-07T09:30:49;11.60;;;8.00;;
70761;SDS011;58360;0.000;0.000;2023-03-07T09:33:14;12.05;;;8.43;;
70761;SDS011;58360;0.000;0.000;2023-03-07T09:35:40;14.38;;;8.70;;
70761;SDS011;58360;0.000;0.000;2023-03-07T09:38:06;12.77;;;7.72;;
70761;SDS011;58360;0.000;0.000;2023-03-07T09:40:32;11.10;;;8.27;;
70761;SDS011;58360;0.000;0.000;2023-03-07T09:51:37;14.60;;;7.65;;
70761;SDS011;58360;0.000;0.000;2023-03-07T09:54:09;11.25;;;7.47;;
70761;SDS011;58360;0.000;0.000;2023-03-07T09:56:48;10.02;;;7.25;;
70761;SDS011;58360;0.000;0.000;2023-03-07T10:02:11;10.95;;;7.40;;
70761;SDS011;58360;0.000;0.000;2023-03-07T10:04:49;12.93;;;7.32;;
70761;SDS011;58360;0.000;0.000;2023-03-07T10:07:33;9.40;;;6.68;;
70761;SDS011;58360;0.000;0.000;2023-03-07T10:10:01;9.75;;;7.20;;
70761;SDS011;58360;0.000;0.000;2023-03-07T10:12:37;9.95;;;7.00;;
70761;SDS011;58360;0.000;0.000;2023-03-07T10:21:13;13.05;;;7.07;;
70761;SDS011;58360;0.000;0.000;2023-03-07T10:26:19;11.70;;;7.72;;
70761;SDS011;58360;0.000;0.000;2023-03-07T10:28:56;9.88;;;7.03;;
70761;SDS011;58360;0.000;0.000;2023-03-07T10:37:07;12.30;;;7.55;;
70761;SDS011;58360;0.000;0.000;2023-03-07T10:42:18;10.00;;;7.45;;
70761;SDS011;58360;0.000;0.000;2023-03-07T10:44:46;11.35;;;6.75;;
70761;SDS011;58360;0.000;0.000;2023-03-07T10:47:34;9.30;;;6.53;;
70761;SDS011;58360;0.000;0.000;2023-03-07T10:52:51;15.75;;;7.70;;
70761;SDS011;58360;0.000;0.000;2023-03-07T10:55:40;7.93;;;4.63;;
70761;SDS011;58360;0.000;0.000;2023-03-07T10:58:11;5.88;;;3.90;;
70761;SDS011;58360;0.000;0.000;2023-03-07T11:00:37;6.60;;;4.13;;
70761;SDS011;58360;0.000;0.000;2023-03-07T11:03:03;10.27;;;4.43;;
70761;SDS011;58360;0.000;0.000;2023-03-07T11:05:46;7.05;;;4.00;;
70761;SDS011;58360;0.000;0.000;2023-03-07T11:08:19;6.57;;;4.00;;
70761;SDS011;58360;0.000;0.000;2023-03-07T11:10:50;6.53;;;3.97;;
70761;SDS011;58360;0.000;0.000;2023-03-07T11:13:17;5.80;;;3.85;;
70761;SDS011;58360;0.000;0.000;2023-03-07T11:15:44;8.30;;;4.10;;
70761;SDS011;58360;0.000;0.000;2023-03-07T11:24:00;5.88;;;3.78;;
70761;SDS011;58360;0.000;0.000;2023-03-07T11:26:40;5.90;;;4.03;;
70761;SDS011;58360;0.000;0.000;2023-03-07T11:29:10;7.63;;;4.32;;
70761;SDS011;58360;0.000;0.000;2023-03-07T11:31:46;6.13;;;3.47;;
70761;SDS011;58360;0.000;0.000;2023-03-07T11:42:28;5.45;;;3.28;;
70761;SDS011;58360;0.000;0.000;2023-03-07T11:48:04;5.35;;;3.05;;
70761;SDS011;58360;0.000;0.000;2023-03-07T11:50:50;7.32;;;3.50;;
70761;SDS011;58360;0.000;0.000;2023-03-07T12:15:25;3.05;;;1.73;;
70761;SDS011;58360;0.000;0.000;2023-03-07T12:23:37;5.20;;;2.20;;
70761;SDS011;58360;0.000;0.000;2023-03-07T12:36:33;5.43;;;3.60;;
70761;SDS011;58360;0.000;0.000;2023-03-07T12:44:47;10.85;;;6.72;;
70761;SDS011;58360;0.000;0.000;2023-03-07T12:47:29;10.93;;;6.95;;
70761;SDS011;58360;0.000;0.000;2023-03-07T12:50:14;14.80;;;7.90;;
70761;SDS011;58360;0.000;0.000;2023-03-07T13:00:43;17.45;;;8.73;;
70761;SDS011;58360;0.000;0.000;2023-03-07T13:03:29;12.57;;;9.15;;
70761;SDS011;58360;0.000;0.000;2023-03-07T13:06:03;13.35;;;9.13;;
70761;SDS011;58360;0.000;0.000;2023-03-07T13:08:32;13.65;;;9.57;;
70761;SDS011;58360;0.000;0.000;2023-03-07T13:10:58;17.90;;;11.80;;
70761;SDS011;58360;0.000;0.000;2023-03-07T13:16:09;18.60;;;13.20;;
70761;SDS011;58360;0.000;0.000;2023-03-07T13:18:36;18.10;;;12.93;;
70761;SDS011;58360;0.000;0.000;2023-03-07T13:21:13;20.92;;;14.60;;
70761;SDS011;58360;0.000;0.000;2023-03-07T13:27:15;21.67;;;13.35;;
70761;SDS011;58360;0.000;0.000;2023-03-07T13:33:20;21.60;;;15.27;;
70761;SDS011;58360;0.000;0.000;2023-03-07T13:37:56;25.40;;;15.95;;
70761;SDS011;58360;0.000;0.000;2023-03-07T13:46:49;25.30;;;16.55;;
70761;SDS011;58360;0.000;0.000;2023-03-07T13:55:02;24.27;;;14.85;;
70761;SDS011;58360;0.000;0.000;2023-03-07T13:57:38;22.30;;;15.35;;
70761;SDS011;58360;0.000;0.000;2023-03-07T14:00:20;23.75;;;15.55;;
70761;SDS011;58360;0.000;0.000;2023-03-07T14:02:48;19.33;;;13.95;;
70761;SDS011;58360;0.000;0.000;2023-03-07T14:05:16;21.60;;;13.25;;
70761;SDS011;58360;0.000;0.000;2023-03-07T14:07:42;18.95;;;12.95;;
70761;SDS011;58360;0.000;0.000;2023-03-07T14:10:24;19.17;;;12.75;;
70761;SDS011;58360;0.000;0.000;2023-03-07T14:26:15;18.13;;;12.45;;
70761;SDS011;58360;0.000;0.000;2023-03-07T14:28:50;13.07;;;8.82;;
70761;SDS011;58360;0.000;0.000;2023-03-07T14:31:24;11.02;;;7.60;;
70761;SDS011;58360;0.000;0.000;2023-03-07T14:33:52;12.35;;;7.25;;
70761;SDS011;58360;0.000;0.000;2023-03-07T14:36:19;9.65;;;6.10;;
70761;SDS011;58360;0.000;0.000;2023-03-07T14:38:49;9.57;;;5.53;;
70761;SDS011;58360;0.000;0.000;2023-03-07T14:46:26;8.75;;;5.55;;
70761;SDS011;58360;0.000;0.000;2023-03-07T14:51:38;6.90;;;4.32;;
70761;SDS011;58360;0.000;0.000;2023-03-07T14:54:06;7.85;;;4.97;;
70761;SDS011;58360;0.000;0.000;2023-03-07T14:56:43;6.68;;;4.50;;
70761;SDS011;58360;0.000;0.000;2023-03-07T14:59:11;7.00;;;4.72;;
70761;SDS011;58360;0.000;0.000;2023-03-07T15:01:39;6.20;;;4.53;;
70761;SDS011;58360;0.000;0.000;2023-03-07T15:04:17;9.10;;;4.95;;
70761;SDS011;58360;0.000;0.000;2023-03-07T15:06:54;5.82;;;4.40;;
70761;SDS011;58360;0.000;0.000;2023-03-07T15:09:22;6.93;;;4.95;;
70761;SDS011;58360;0.000;0.000;2023-03-07T15:14:32;7.65;;;5.53;;
70761;SDS011;58360;0.000;0.000;2023-03-07T15:17:05;7.93;;;5.10;;
70761;SDS011;58360;0.000;0.000;2023-03-07T15:19:46;7.22;;;4.68;;
70761;SDS011;58360;0.000;0.000;2023-03-07T15:22:23;9.85;;;5.57;;
70761;SDS011;58360;0.000;0.000;2023-03-07T15:24:52;5.10;;;3.65;;
70761;SDS011;58360;0.000;0.000;2023-03-07T15:27:23;5.25;;;3.67;;
70761;SDS011;58360;0.000;0.000;2023-03-07T15:29:52;5.78;;;3.63;;
70761;SDS011;58360;0.000;0.000;2023-03-07T15:37:52;7.78;;;3.33;;
70761;SDS011;58360;0.000;0.000;2023-03-07T15:40:22;5.72;;;2.83;;
70761;SDS011;58360;0.000;0.000;2023-03-07T15:42:56;4.68;;;2.97;;
70761;SDS011;58360;0.000;0.000;2023-03-07T15:47:59;6.55;;;3.45;;
70761;SDS011;58360;0.000;0.000;2023-03-07T15:50:32;5.40;;;3.55;;
70761;SDS011;58360;0.000;0.000;2023-03-07T15:52:59;5.68;;;3.70;;
70761;SDS011;58360;0.000;0.000;2023-03-07T15:55:29;7.88;;;3.63;;
70761;SDS011;58360;0.000;0.000;2023-03-07T15:57:57;6.22;;;4.20;;
70761;SDS011;58360;0.000;0.000;2023-03-07T16:03:16;6.70;;;4.80;;
70761;SDS011;58360;0.000;0.000;2023-03-07T16:05:43;7.95;;;5.25;;
70761;SDS011;58360;0.000;0.000;2023-03-07T16:08:10;8.80;;;5.35;;
70761;SDS011;58360;0.000;0.000;2023-03-07T16:10:39;9.02;;;5.57;;
70761;SDS011;58360;0.000;0.000;2023-03-07T16:13:14;6.88;;;4.40;;
70761;SDS011;58360;0.000;0.000;2023-03-07T16:15:41;6.00;;;4.20;;
70761;SDS011;58360;0.000;0.000;2023-03-07T16:18:07;8.90;;;4.80;;
70761;SDS011;58360;0.000;0.000;2023-03-07T16:20:32;7.30;;;5.15;;
70761;SDS011;58360;0.000;0.000;2023-03-07T16:22:58;9.13;;;5.07;;
70761;SDS011;58360;0.000;0.000;2023-03-07T16:25:25;8.27;;;4.53;;
70761;SDS011;58360;0.000;0.000;2023-03-07T16:27:55;6.97;;;4.80;;
70761;SDS011;58360;0.000;0.000;2023-03-07T16:30:22;6.00;;;4.13;;
70761;SDS011;58360;0.000;0.000;2023-03-07T16:32:50;8.82;;;4.63;;
70761;SDS011;58360;0.000;0.000;2023-03-07T16:35:19;6.93;;;4.75;;
70761;SDS011;58360;0.000;0.000;2023-03-07T16:37:50;7.28;;;4.65;;
70761;SDS011;58360;0.000;0.000;2023-03-07T16:40:16;7.00;;;5.07;;
70761;SDS011;58360;0.000;0.000;2023-03-07T16:42:43;10.30;;;5.78;;
70761;SDS011;58360;0.000;0.000;2023-03-07T16:45:14;9.80;;;5.70;;
70761;SDS011;58360;0.000;0.000;2023-03-07T16:47:50;7.97;;;5.05;;
70761;SDS011;58360;0.000;0.000;2023-03-07T16:50:18;8.88;;;5.18;;
70761;SDS011;58360;0.000;0.000;2023-03-07T16:52:49;8.02;;;5.75;;
70761;SDS011;58360;0.000;0.000;2023-03-07T16:55:15;8.20;;;5.43;;
70761;SDS011;58360;0.000;0.000;2023-03-07T16:57:45;8.85;;;5.65;;
70761;SDS011;58360;0.000;0.000;2023-03-07T17:00:13;9.25;;;6.03;;
70761;SDS011;58360;0.000;0.000;2023-03-07T17:02:42;9.18;;;6.43;;
70761;SDS011;58360;0.000;0.000;2023-03-07T17:05:13;11.23;;;7.53;;
70761;SDS011;58360;0.000;0.000;2023-03-07T17:07:40;13.68;;;9.25;;
70761;SDS011;58360;0.000;0.000;2023-03-07T17:10:06;13.23;;;8.98;;
70761;SDS011;58360;0.000;0.000;2023-03-07T17:12:33;14.68;;;8.77;;
70761;SDS011;58360;0.000;0.000;2023-03-07T17:14:58;13.48;;;9.80;;
70761;SDS011;58360;0.000;0.000;2023-03-07T17:17:29;12.50;;;9.10;;
70761;SDS011;58360;0.000;0.000;2023-03-07T17:19:59;12.63;;;9.00;;
70761;SDS011;58360;0.000;0.000;2023-03-07T17:22:26;12.30;;;8.00;;
70761;SDS011;58360;0.000;0.000;2023-03-07T17:24:51;8.00;;;5.70;;
70761;SDS011;58360;0.000;0.000;2023-03-07T17:27:17;8.00;;;4.63;;
70761;SDS011;58360;0.000;0.000;2023-03-07T17:29:53;7.55;;;4.50;;
70761;SDS011;58360;0.000;0.000;2023-03-07T17:32:19;7.13;;;4.00;;
70761;SDS011;58360;0.000;0.000;2023-03-07T17:34:45;6.43;;;3.55;;
70761;SDS011;58360;0.000;0.000;2023-03-07T17:37:12;6.65;;;2.80;;
70761;SDS011;58360;0.000;0.000;2023-03-07T17:39:38;4.88;;;2.53;;